sensor_id;sensor_type;location;lat;lon;timestamp;P1;durP1;ratioP1;P2;durP2;ratioP2
34711;SDS011;20941;42.408;25.634;2023-06-10T00:02:10;6.05;;;4.35;;
34711;SDS011;20941;42.408;25.634;2023-06-10T00:04:35;12.73;;;7.93;;
34711;SDS011;20941;42.408;25.634;2023-06-10T00:07:04;20.85;;;17.00;;
34711;SDS011;20941;42.408;25.634;2023-06-10T00:09:36;12.23;;;8.60;;
34711;SDS011;20941;42.408;25.634;2023-06-10T00:12:05;19.92;;;14.75;;
34711;SDS011;20941;42.408;25.634;2023-06-10T00:14:31;42.42;;;24.58;;
34711;SDS011;20941;42.408;25.634;2023-06-10T00:16:57;30.75;;;21.70;;
34711;SDS011;20941;42.408;25.634;2023-06-10T00:19:23;41.00;;;27.33;;
34711;SDS011;20941;42.408;25.634;2023-06-10T00:21:50;20.88;;;14.63;;
34711;SDS011;20941;42.408;25.634;2023-06-10T00:24:16;7.38;;;6.18;;
34711;SDS011;20941;42.408;25.634;2023-06-10T00:26:41;24.15;;;14.82;;
34711;SDS011;20941;42.408;25.634;2023-06-10T00:29:07;29.90;;;20.35;;
34711;SDS011;20941;42.408;25.634;2023-06-10T00:31:37;33.15;;;17.83;;
34711;SDS011;20941;42.408;25.634;2023-06-10T00:34:02;27.55;;;17.33;;
34711;SDS011;20941;42.408;25.634;2023-06-10T00:36:28;21.52;;;14.05;;
34711;SDS011;20941;42.408;25.634;2023-06-10T00:38:53;33.33;;;21.50;;
34711;SDS011;20941;42.408;25.634;2023-06-10T00:41:19;14.70;;;8.40;;
34711;SDS011;20941;42.408;25.634;2023-06-10T00:43:44;11.00;;;5.95;;
34711;SDS011;20941;42.408;25.634;2023-06-10T00:46:11;8.93;;;5.60;;
34711;SDS011;20941;42.408;25.634;2023-06-10T00:48:37;8.60;;;5.32;;
34711;SDS011;20941;42.408;25.634;2023-06-10T00:51:03;7.30;;;5.13;;
34711;SDS011;20941;42.408;25.634;2023-06-10T00:53:30;6.53;;;4.78;;
34711;SDS011;20941;42.408;25.634;2023-06-10T00:55:55;7.15;;;4.72;;
34711;SDS011;20941;42.408;25.634;2023-06-10T00:58:21;4.40;;;3.78;;
34711;SDS011;20941;42.408;25.634;2023-06-10T01:00:46;5.63;;;4.10;;
34711;SDS011;20941;42.408;25.634;2023-06-10T01:03:13;4.88;;;4.13;;
34711;SDS011;20941;42.408;25.634;2023-06-10T01:05:42;6.80;;;3.88;;
34711;SDS011;20941;42.408;25.634;2023-06-10T01:08:20;7.63;;;5.72;;
34711;SDS011;20941;42.408;25.634;2023-06-10T01:10:50;8.27;;;5.53;;
34711;SDS011;20941;42.408;25.634;2023-06-10T01:13:17;18.52;;;9.55;;
34711;SDS011;20941;42.408;25.634;2023-06-10T01:15:43;24.88;;;11.27;;
34711;SDS011;20941;42.408;25.634;2023-06-10T01:18:09;14.90;;;10.27;;
34711;SDS011;20941;42.408;25.634;2023-06-10T01:20:37;12.32;;;9.02;;
34711;SDS011;20941;42.408;25.634;2023-06-10T01:23:05;8.68;;;6.70;;
34711;SDS011;20941;42.408;25.634;2023-06-10T01:25:30;9.70;;;7.95;;
34711;SDS011;20941;42.408;25.634;2023-06-10T01:30:32;32.90;;;26.20;;
34711;SDS011;20941;42.408;25.634;2023-06-10T01:33:02;43.17;;;31.08;;
34711;SDS011;20941;42.408;25.634;2023-06-10T01:35:30;55.03;;;44.63;;
34711;SDS011;20941;42.408;25.634;2023-06-10T01:37:56;66.20;;;48.65;;
34711;SDS011;20941;42.408;25.634;2023-06-10T01:40:23;57.92;;;43.03;;
34711;SDS011;20941;42.408;25.634;2023-06-10T01:42:48;20.55;;;16.35;;
34711;SDS011;20941;42.408;25.634;2023-06-10T01:45:14;16.63;;;14.23;;
34711;SDS011;20941;42.408;25.634;2023-06-10T01:47:39;10.77;;;7.93;;
34711;SDS011;20941;42.408;25.634;2023-06-10T01:50:05;9.77;;;4.70;;
34711;SDS011;20941;42.408;25.634;2023-06-10T01:52:30;7.07;;;5.18;;
34711;SDS011;20941;42.408;25.634;2023-06-10T01:54:56;14.75;;;6.82;;
34711;SDS011;20941;42.408;25.634;2023-06-10T01:57:21;14.25;;;6.50;;
34711;SDS011;20941;42.408;25.634;2023-06-10T01:59:46;8.07;;;5.47;;
34711;SDS011;20941;42.408;25.634;2023-06-10T02:02:12;13.45;;;5.47;;
34711;SDS011;20941;42.408;25.634;2023-06-10T02:04:37;11.27;;;4.93;;
34711;SDS011;20941;42.408;25.634;2023-06-10T02:07:03;12.00;;;4.82;;
34711;SDS011;20941;42.408;25.634;2023-06-10T02:09:29;9.02;;;5.10;;
34711;SDS011;20941;42.408;25.634;2023-06-10T02:11:55;11.38;;;5.10;;
34711;SDS011;20941;42.408;25.634;2023-06-10T02:14:20;10.70;;;5.45;;
34711;SDS011;20941;42.408;25.634;2023-06-10T02:16:46;7.63;;;5.72;;
34711;SDS011;20941;42.408;25.634;2023-06-10T02:19:12;11.85;;;6.45;;
34711;SDS011;20941;42.408;25.634;2023-06-10T02:21:37;13.88;;;6.03;;
34711;SDS011;20941;42.408;25.634;2023-06-10T02:24:02;9.00;;;5.82;;
34711;SDS011;20941;42.408;25.634;2023-06-10T02:26:28;12.10;;;5.10;;
34711;SDS011;20941;42.408;25.634;2023-06-10T02:28:53;12.43;;;5.38;;
34711;SDS011;20941;42.408;25.634;2023-06-10T02:31:19;7.88;;;5.32;;
34711;SDS011;20941;42.408;25.634;2023-06-10T02:33:44;16.52;;;6.35;;
34711;SDS011;20941;42.408;25.634;2023-06-10T02:36:10;10.00;;;5.75;;
34711;SDS011;20941;42.408;25.634;2023-06-10T02:38:38;12.02;;;6.00;;
34711;SDS011;20941;42.408;25.634;2023-06-10T02:41:04;18.88;;;8.00;;
34711;SDS011;20941;42.408;25.634;2023-06-10T02:43:29;9.27;;;7.15;;
34711;SDS011;20941;42.408;25.634;2023-06-10T02:45:54;12.32;;;9.60;;
34711;SDS011;20941;42.408;25.634;2023-06-10T02:48:20;13.10;;;11.05;;
34711;SDS011;20941;42.408;25.634;2023-06-10T02:50:45;14.02;;;8.57;;
34711;SDS011;20941;42.408;25.634;2023-06-10T02:53:10;9.50;;;5.78;;
34711;SDS011;20941;42.408;25.634;2023-06-10T02:55:36;17.33;;;7.32;;
34711;SDS011;20941;42.408;25.634;2023-06-10T02:58:01;10.85;;;6.68;;
34711;SDS011;20941;42.408;25.634;2023-06-10T03:00:27;12.13;;;6.85;;
34711;SDS011;20941;42.408;25.634;2023-06-10T03:02:53;14.40;;;5.50;;
34711;SDS011;20941;42.408;25.634;2023-06-10T03:05:22;19.60;;;5.88;;
34711;SDS011;20941;42.408;25.634;2023-06-10T03:07:48;11.25;;;5.80;;
34711;SDS011;20941;42.408;25.634;2023-06-10T03:10:13;11.38;;;5.07;;
34711;SDS011;20941;42.408;25.634;2023-06-10T03:12:38;9.05;;;5.50;;
34711;SDS011;20941;42.408;25.634;2023-06-10T03:15:04;11.88;;;6.22;;
34711;SDS011;20941;42.408;25.634;2023-06-10T03:17:29;11.75;;;5.13;;
34711;SDS011;20941;42.408;25.634;2023-06-10T03:19:55;8.50;;;4.57;;
34711;SDS011;20941;42.408;25.634;2023-06-10T03:22:21;6.85;;;4.35;;
34711;SDS011;20941;42.408;25.634;2023-06-10T03:24:46;8.20;;;5.15;;
34711;SDS011;20941;42.408;25.634;2023-06-10T03:27:15;8.40;;;4.50;;
34711;SDS011;20941;42.408;25.634;2023-06-10T03:29:40;6.30;;;4.05;;
34711;SDS011;20941;42.408;25.634;2023-06-10T03:32:06;9.02;;;4.35;;
34711;SDS011;20941;42.408;25.634;2023-06-10T03:34:31;14.63;;;4.10;;
34711;SDS011;20941;42.408;25.634;2023-06-10T03:36:57;7.18;;;4.65;;
34711;SDS011;20941;42.408;25.634;2023-06-10T03:39:22;8.95;;;4.20;;
34711;SDS011;20941;42.408;25.634;2023-06-10T03:41:48;11.30;;;4.47;;
34711;SDS011;20941;42.408;25.634;2023-06-10T03:44:14;10.90;;;4.65;;
34711;SDS011;20941;42.408;25.634;2023-06-10T03:46:40;11.55;;;4.63;;
34711;SDS011;20941;42.408;25.634;2023-06-10T03:49:05;12.75;;;4.90;;
34711;SDS011;20941;42.408;25.634;2023-06-10T03:51:30;13.25;;;5.15;;
34711;SDS011;20941;42.408;25.634;2023-06-10T03:53:56;10.70;;;5.30;;
34711;SDS011;20941;42.408;25.634;2023-06-10T03:56:21;7.75;;;4.88;;
34711;SDS011;20941;42.408;25.634;2023-06-10T03:58:46;10.60;;;5.32;;
34711;SDS011;20941;42.408;25.634;2023-06-10T04:01:12;15.30;;;5.75;;
34711;SDS011;20941;42.408;25.634;2023-06-10T04:03:38;9.27;;;5.03;;
34711;SDS011;20941;42.408;25.634;2023-06-10T04:06:04;10.85;;;5.25;;
34711;SDS011;20941;42.408;25.634;2023-06-10T04:08:29;11.80;;;5.03;;
34711;SDS011;20941;42.408;25.634;2023-06-10T04:10:56;12.85;;;4.45;;
34711;SDS011;20941;42.408;25.634;2023-06-10T04:13:22;12.18;;;4.47;;
34711;SDS011;20941;42.408;25.634;2023-06-10T04:15:47;9.75;;;4.88;;
34711;SDS011;20941;42.408;25.634;2023-06-10T04:18:13;10.88;;;4.75;;
34711;SDS011;20941;42.408;25.634;2023-06-10T04:20:38;8.40;;;4.45;;
34711;SDS011;20941;42.408;25.634;2023-06-10T04:23:03;8.45;;;4.82;;
34711;SDS011;20941;42.408;25.634;2023-06-10T04:25:29;8.10;;;4.80;;
34711;SDS011;20941;42.408;25.634;2023-06-10T04:27:55;10.13;;;4.60;;
34711;SDS011;20941;42.408;25.634;2023-06-10T04:30:20;8.15;;;4.45;;
34711;SDS011;20941;42.408;25.634;2023-06-10T04:32:45;9.13;;;4.95;;
34711;SDS011;20941;42.408;25.634;2023-06-10T04:35:12;16.70;;;5.75;;
34711;SDS011;20941;42.408;25.634;2023-06-10T04:37:38;8.57;;;5.70;;
34711;SDS011;20941;42.408;25.634;2023-06-10T04:40:03;14.35;;;8.43;;
34711;SDS011;20941;42.408;25.634;2023-06-10T04:42:30;15.43;;;5.80;;
34711;SDS011;20941;42.408;25.634;2023-06-10T04:44:55;18.10;;;5.97;;
34711;SDS011;20941;42.408;25.634;2023-06-10T04:47:21;20.40;;;5.88;;
34711;SDS011;20941;42.408;25.634;2023-06-10T04:49:46;11.73;;;5.20;;
34711;SDS011;20941;42.408;25.634;2023-06-10T04:52:11;8.52;;;5.28;;
34711;SDS011;20941;42.408;25.634;2023-06-10T04:54:37;11.05;;;5.80;;
34711;SDS011;20941;42.408;25.634;2023-06-10T04:57:03;14.18;;;7.65;;
34711;SDS011;20941;42.408;25.634;2023-06-10T04:59:28;17.02;;;10.13;;
34711;SDS011;20941;42.408;25.634;2023-06-10T05:01:55;14.10;;;7.88;;
34711;SDS011;20941;42.408;25.634;2023-06-10T05:04:20;23.88;;;9.85;;
34711;SDS011;20941;42.408;25.634;2023-06-10T05:06:45;11.18;;;6.68;;
34711;SDS011;20941;42.408;25.634;2023-06-10T05:09:11;10.40;;;6.80;;
34711;SDS011;20941;42.408;25.634;2023-06-10T05:11:36;13.73;;;6.35;;
34711;SDS011;20941;42.408;25.634;2023-06-10T05:14:01;11.40;;;5.75;;
34711;SDS011;20941;42.408;25.634;2023-06-10T05:16:27;7.95;;;5.80;;
34711;SDS011;20941;42.408;25.634;2023-06-10T05:18:52;10.68;;;5.47;;
34711;SDS011;20941;42.408;25.634;2023-06-10T05:21:18;7.38;;;5.22;;
34711;SDS011;20941;42.408;25.634;2023-06-10T05:23:44;10.02;;;5.28;;
34711;SDS011;20941;42.408;25.634;2023-06-10T05:26:09;6.40;;;5.20;;
34711;SDS011;20941;42.408;25.634;2023-06-10T05:28:34;8.70;;;5.35;;
34711;SDS011;20941;42.408;25.634;2023-06-10T05:31:00;6.80;;;4.68;;
34711;SDS011;20941;42.408;25.634;2023-06-10T05:33:25;7.53;;;4.72;;
34711;SDS011;20941;42.408;25.634;2023-06-10T05:35:50;9.13;;;4.82;;
34711;SDS011;20941;42.408;25.634;2023-06-10T05:38:16;9.48;;;4.95;;
34711;SDS011;20941;42.408;25.634;2023-06-10T05:40:41;10.43;;;5.05;;
34711;SDS011;20941;42.408;25.634;2023-06-10T05:43:07;11.70;;;4.68;;
34711;SDS011;20941;42.408;25.634;2023-06-10T05:45:32;10.00;;;5.18;;
34711;SDS011;20941;42.408;25.634;2023-06-10T05:47:57;13.35;;;6.13;;
34711;SDS011;20941;42.408;25.634;2023-06-10T05:50:23;10.40;;;4.90;;
34711;SDS011;20941;42.408;25.634;2023-06-10T05:52:49;9.73;;;5.10;;
34711;SDS011;20941;42.408;25.634;2023-06-10T05:55:14;10.57;;;4.80;;
34711;SDS011;20941;42.408;25.634;2023-06-10T05:57:41;7.68;;;4.45;;
34711;SDS011;20941;42.408;25.634;2023-06-10T06:00:07;5.93;;;3.95;;
34711;SDS011;20941;42.408;25.634;2023-06-10T06:02:32;7.45;;;3.90;;
34711;SDS011;20941;42.408;25.634;2023-06-10T06:04:57;8.75;;;4.28;;
34711;SDS011;20941;42.408;25.634;2023-06-10T06:07:23;7.75;;;4.35;;
34711;SDS011;20941;42.408;25.634;2023-06-10T06:09:48;6.18;;;3.70;;
34711;SDS011;20941;42.408;25.634;2023-06-10T06:12:13;6.90;;;3.85;;
34711;SDS011;20941;42.408;25.634;2023-06-10T06:14:39;21.20;;;5.45;;
34711;SDS011;20941;42.408;25.634;2023-06-10T06:17:05;4.25;;;3.25;;
34711;SDS011;20941;42.408;25.634;2023-06-10T06:19:31;8.18;;;4.25;;
34711;SDS011;20941;42.408;25.634;2023-06-10T06:21:56;6.07;;;4.18;;
34711;SDS011;20941;42.408;25.634;2023-06-10T06:24:21;7.30;;;4.15;;
34711;SDS011;20941;42.408;25.634;2023-06-10T06:26:47;5.80;;;3.97;;
34711;SDS011;20941;42.408;25.634;2023-06-10T06:29:12;8.18;;;3.95;;
34711;SDS011;20941;42.408;25.634;2023-06-10T06:31:37;6.10;;;4.28;;
34711;SDS011;20941;42.408;25.634;2023-06-10T06:34:03;7.72;;;4.13;;
34711;SDS011;20941;42.408;25.634;2023-06-10T06:36:28;11.43;;;5.07;;
34711;SDS011;20941;42.408;25.634;2023-06-10T06:38:53;16.65;;;5.78;;
34711;SDS011;20941;42.408;25.634;2023-06-10T06:41:19;6.63;;;4.60;;
34711;SDS011;20941;42.408;25.634;2023-06-10T06:43:44;5.13;;;4.10;;
34711;SDS011;20941;42.408;25.634;2023-06-10T06:46:10;5.57;;;4.35;;
34711;SDS011;20941;42.408;25.634;2023-06-10T06:48:35;9.40;;;4.38;;
34711;SDS011;20941;42.408;25.634;2023-06-10T06:51:00;10.05;;;4.38;;
34711;SDS011;20941;42.408;25.634;2023-06-10T06:53:26;8.90;;;4.40;;
34711;SDS011;20941;42.408;25.634;2023-06-10T06:55:51;9.18;;;4.78;;
34711;SDS011;20941;42.408;25.634;2023-06-10T06:58:18;12.45;;;5.00;;
34711;SDS011;20941;42.408;25.634;2023-06-10T07:00:43;5.50;;;4.90;;
34711;SDS011;20941;42.408;25.634;2023-06-10T07:03:09;8.68;;;5.40;;
34711;SDS011;20941;42.408;25.634;2023-06-10T07:05:35;6.32;;;4.43;;
34711;SDS011;20941;42.408;25.634;2023-06-10T07:08:01;7.18;;;4.82;;
34711;SDS011;20941;42.408;25.634;2023-06-10T07:10:26;9.27;;;4.32;;
34711;SDS011;20941;42.408;25.634;2023-06-10T07:12:52;17.48;;;12.35;;
34711;SDS011;20941;42.408;25.634;2023-06-10T07:15:17;14.25;;;8.93;;
34711;SDS011;20941;42.408;25.634;2023-06-10T07:17:43;14.00;;;10.77;;
34711;SDS011;20941;42.408;25.634;2023-06-10T07:20:08;16.35;;;8.90;;
34711;SDS011;20941;42.408;25.634;2023-06-10T07:22:34;13.75;;;6.97;;
34711;SDS011;20941;42.408;25.634;2023-06-10T07:24:59;9.05;;;6.35;;
34711;SDS011;20941;42.408;25.634;2023-06-10T07:27:25;10.85;;;4.57;;
34711;SDS011;20941;42.408;25.634;2023-06-10T07:29:50;8.93;;;4.15;;
34711;SDS011;20941;42.408;25.634;2023-06-10T07:32:16;6.45;;;4.10;;
34711;SDS011;20941;42.408;25.634;2023-06-10T07:34:41;9.35;;;4.30;;
34711;SDS011;20941;42.408;25.634;2023-06-10T07:37:06;12.23;;;4.13;;
34711;SDS011;20941;42.408;25.634;2023-06-10T07:39:32;4.65;;;2.92;;
34711;SDS011;20941;42.408;25.634;2023-06-10T07:41:57;4.43;;;3.08;;
34711;SDS011;20941;42.408;25.634;2023-06-10T07:44:23;5.07;;;4.50;;
34711;SDS011;20941;42.408;25.634;2023-06-10T07:46:48;3.85;;;3.13;;
34711;SDS011;20941;42.408;25.634;2023-06-10T07:49:14;9.57;;;3.90;;
34711;SDS011;20941;42.408;25.634;2023-06-10T07:51:39;5.78;;;3.17;;
34711;SDS011;20941;42.408;25.634;2023-06-10T07:54:04;4.70;;;3.30;;
34711;SDS011;20941;42.408;25.634;2023-06-10T07:56:30;2.47;;;2.28;;
34711;SDS011;20941;42.408;25.634;2023-06-10T07:58:55;3.70;;;2.80;;
34711;SDS011;20941;42.408;25.634;2023-06-10T08:01:22;3.00;;;2.70;;
34711;SDS011;20941;42.408;25.634;2023-06-10T08:03:47;4.63;;;2.78;;
34711;SDS011;20941;42.408;25.634;2023-06-10T08:06:13;4.55;;;2.88;;
34711;SDS011;20941;42.408;25.634;2023-06-10T08:08:39;3.90;;;3.08;;
34711;SDS011;20941;42.408;25.634;2023-06-10T08:11:07;8.57;;;3.78;;
34711;SDS011;20941;42.408;25.634;2023-06-10T08:13:33;5.82;;;3.33;;
34711;SDS011;20941;42.408;25.634;2023-06-10T08:15:58;3.10;;;2.50;;
34711;SDS011;20941;42.408;25.634;2023-06-10T08:18:23;4.22;;;3.40;;
34711;SDS011;20941;42.408;25.634;2023-06-10T08:20:49;4.28;;;2.75;;
34711;SDS011;20941;42.408;25.634;2023-06-10T08:23:14;8.18;;;6.10;;
34711;SDS011;20941;42.408;25.634;2023-06-10T08:25:40;4.50;;;3.22;;
34711;SDS011;20941;42.408;25.634;2023-06-10T08:28:05;5.03;;;3.92;;
34711;SDS011;20941;42.408;25.634;2023-06-10T08:30:30;12.95;;;8.20;;
34711;SDS011;20941;42.408;25.634;2023-06-10T08:32:56;4.78;;;4.35;;
34711;SDS011;20941;42.408;25.634;2023-06-10T08:35:21;12.98;;;5.97;;
34711;SDS011;20941;42.408;25.634;2023-06-10T08:37:47;13.05;;;7.57;;
34711;SDS011;20941;42.408;25.634;2023-06-10T08:40:12;7.90;;;4.22;;
34711;SDS011;20941;42.408;25.634;2023-06-10T08:42:45;6.65;;;5.03;;
34711;SDS011;20941;42.408;25.634;2023-06-10T08:45:16;4.22;;;3.55;;
34711;SDS011;20941;42.408;25.634;2023-06-10T08:47:42;2.70;;;2.50;;
34711;SDS011;20941;42.408;25.634;2023-06-10T08:50:09;4.63;;;3.13;;
34711;SDS011;20941;42.408;25.634;2023-06-10T08:52:35;7.70;;;3.03;;
34711;SDS011;20941;42.408;25.634;2023-06-10T08:55:10;6.60;;;3.38;;
34711;SDS011;20941;42.408;25.634;2023-06-10T08:57:35;4.57;;;3.10;;
34711;SDS011;20941;42.408;25.634;2023-06-10T09:00:01;4.75;;;2.97;;
34711;SDS011;20941;42.408;25.634;2023-06-10T09:02:28;8.32;;;3.22;;
34711;SDS011;20941;42.408;25.634;2023-06-10T09:04:53;3.42;;;3.13;;
34711;SDS011;20941;42.408;25.634;2023-06-10T09:07:20;4.57;;;2.95;;
34711;SDS011;20941;42.408;25.634;2023-06-10T09:09:46;4.88;;;3.22;;
34711;SDS011;20941;42.408;25.634;2023-06-10T09:12:12;5.90;;;3.95;;
34711;SDS011;20941;42.408;25.634;2023-06-10T09:14:38;3.17;;;2.85;;
34711;SDS011;20941;42.408;25.634;2023-06-10T09:17:03;6.53;;;3.50;;
34711;SDS011;20941;42.408;25.634;2023-06-10T09:19:30;5.97;;;3.30;;
34711;SDS011;20941;42.408;25.634;2023-06-10T09:21:55;3.80;;;3.22;;
34711;SDS011;20941;42.408;25.634;2023-06-10T09:24:21;9.65;;;3.60;;
34711;SDS011;20941;42.408;25.634;2023-06-10T09:26:47;5.40;;;3.13;;
34711;SDS011;20941;42.408;25.634;2023-06-10T09:29:12;6.18;;;3.20;;
34711;SDS011;20941;42.408;25.634;2023-06-10T09:31:38;4.07;;;3.10;;
34711;SDS011;20941;42.408;25.634;2023-06-10T09:34:08;4.40;;;3.22;;
34711;SDS011;20941;42.408;25.634;2023-06-10T09:36:34;6.80;;;3.25;;
34711;SDS011;20941;42.408;25.634;2023-06-10T09:39:00;2.33;;;1.77;;
34711;SDS011;20941;42.408;25.634;2023-06-10T09:41:39;6.38;;;4.72;;
34711;SDS011;20941;42.408;25.634;2023-06-10T09:44:09;11.13;;;8.52;;
34711;SDS011;20941;42.408;25.634;2023-06-10T09:46:36;5.40;;;3.40;;
34711;SDS011;20941;42.408;25.634;2023-06-10T09:49:01;3.65;;;2.80;;
34711;SDS011;20941;42.408;25.634;2023-06-10T09:51:26;6.55;;;3.78;;
34711;SDS011;20941;42.408;25.634;2023-06-10T09:53:52;6.60;;;2.97;;
34711;SDS011;20941;42.408;25.634;2023-06-10T09:56:18;6.57;;;3.47;;
34711;SDS011;20941;42.408;25.634;2023-06-10T09:58:44;9.35;;;6.00;;
34711;SDS011;20941;42.408;25.634;2023-06-10T10:01:11;5.28;;;3.30;;
34711;SDS011;20941;42.408;25.634;2023-06-10T10:03:43;4.85;;;3.10;;
34711;SDS011;20941;42.408;25.634;2023-06-10T10:06:10;4.72;;;3.33;;
34711;SDS011;20941;42.408;25.634;2023-06-10T10:08:35;5.28;;;2.92;;
34711;SDS011;20941;42.408;25.634;2023-06-10T10:11:01;5.63;;;3.00;;
34711;SDS011;20941;42.408;25.634;2023-06-10T10:13:27;7.25;;;3.00;;
34711;SDS011;20941;42.408;25.634;2023-06-10T10:15:53;6.22;;;3.30;;
34711;SDS011;20941;42.408;25.634;2023-06-10T10:18:20;8.30;;;4.00;;
34711;SDS011;20941;42.408;25.634;2023-06-10T10:20:50;5.55;;;1.90;;
34711;SDS011;20941;42.408;25.634;2023-06-10T10:23:32;7.90;;;3.75;;
34711;SDS011;20941;42.408;25.634;2023-06-10T10:26:00;11.55;;;7.13;;
34711;SDS011;20941;42.408;25.634;2023-06-10T10:28:26;6.60;;;4.18;;
34711;SDS011;20941;42.408;25.634;2023-06-10T10:30:54;4.78;;;3.65;;
34711;SDS011;20941;42.408;25.634;2023-06-10T10:33:36;9.13;;;7.43;;
34711;SDS011;20941;42.408;25.634;2023-06-10T10:36:05;5.53;;;3.50;;
34711;SDS011;20941;42.408;25.634;2023-06-10T10:38:32;7.85;;;3.90;;
34711;SDS011;20941;42.408;25.634;2023-06-10T10:40:58;2.97;;;2.22;;
34711;SDS011;20941;42.408;25.634;2023-06-10T10:43:26;2.10;;;1.90;;
34711;SDS011;20941;42.408;25.634;2023-06-10T10:46:01;2.20;;;1.73;;
34711;SDS011;20941;42.408;25.634;2023-06-10T10:48:27;4.20;;;3.15;;
34711;SDS011;20941;42.408;25.634;2023-06-10T10:50:58;5.00;;;3.60;;
34711;SDS011;20941;42.408;25.634;2023-06-10T10:53:24;6.47;;;5.15;;
34711;SDS011;20941;42.408;25.634;2023-06-10T10:59:04;7.68;;;5.35;;
34711;SDS011;20941;42.408;25.634;2023-06-10T11:01:39;5.63;;;2.88;;
34711;SDS011;20941;42.408;25.634;2023-06-10T11:04:06;6.18;;;2.97;;
34711;SDS011;20941;42.408;25.634;2023-06-10T11:06:32;9.85;;;3.90;;
34711;SDS011;20941;42.408;25.634;2023-06-10T11:08:57;7.68;;;5.55;;
34711;SDS011;20941;42.408;25.634;2023-06-10T11:11:25;6.15;;;3.90;;
34711;SDS011;20941;42.408;25.634;2023-06-10T11:16:26;6.65;;;3.40;;
34711;SDS011;20941;42.408;25.634;2023-06-10T11:18:55;11.82;;;6.82;;
34711;SDS011;20941;42.408;25.634;2023-06-10T11:21:22;10.60;;;5.97;;
34711;SDS011;20941;42.408;25.634;2023-06-10T11:23:48;7.20;;;3.92;;
34711;SDS011;20941;42.408;25.634;2023-06-10T11:31:18;8.27;;;3.20;;
34711;SDS011;20941;42.408;25.634;2023-06-10T11:33:44;3.53;;;2.78;;
34711;SDS011;20941;42.408;25.634;2023-06-10T11:36:11;6.60;;;3.08;;
34711;SDS011;20941;42.408;25.634;2023-06-10T11:38:36;4.35;;;3.20;;
34711;SDS011;20941;42.408;25.634;2023-06-10T11:41:02;8.43;;;3.08;;
34711;SDS011;20941;42.408;25.634;2023-06-10T11:43:27;7.03;;;4.40;;
34711;SDS011;20941;42.408;25.634;2023-06-10T11:45:54;4.35;;;3.20;;
34711;SDS011;20941;42.408;25.634;2023-06-10T11:48:19;5.60;;;3.65;;
34711;SDS011;20941;42.408;25.634;2023-06-10T11:50:44;4.10;;;3.30;;
34711;SDS011;20941;42.408;25.634;2023-06-10T11:53:10;3.35;;;3.05;;
34711;SDS011;20941;42.408;25.634;2023-06-10T11:55:47;5.25;;;3.40;;
34711;SDS011;20941;42.408;25.634;2023-06-10T11:58:14;8.68;;;3.42;;
34711;SDS011;20941;42.408;25.634;2023-06-10T12:03:11;5.93;;;3.40;;
34711;SDS011;20941;42.408;25.634;2023-06-10T12:05:36;4.07;;;3.10;;
34711;SDS011;20941;42.408;25.634;2023-06-10T12:08:11;4.97;;;3.50;;
34711;SDS011;20941;42.408;25.634;2023-06-10T12:10:42;5.25;;;3.00;;
34711;SDS011;20941;42.408;25.634;2023-06-10T12:13:11;11.63;;;5.95;;
34711;SDS011;20941;42.408;25.634;2023-06-10T12:15:36;6.78;;;3.42;;
34711;SDS011;20941;42.408;25.634;2023-06-10T12:18:02;4.35;;;3.13;;
34711;SDS011;20941;42.408;25.634;2023-06-10T12:20:28;7.18;;;3.20;;
34711;SDS011;20941;42.408;25.634;2023-06-10T12:22:54;7.50;;;3.83;;
34711;SDS011;20941;42.408;25.634;2023-06-10T12:25:24;9.32;;;6.10;;
34711;SDS011;20941;42.408;25.634;2023-06-10T12:27:51;7.95;;;5.15;;
34711;SDS011;20941;42.408;25.634;2023-06-10T12:30:21;6.32;;;3.85;;
34711;SDS011;20941;42.408;25.634;2023-06-10T12:32:47;5.88;;;3.58;;
34711;SDS011;20941;42.408;25.634;2023-06-10T12:35:20;6.22;;;3.75;;
34711;SDS011;20941;42.408;25.634;2023-06-10T12:40:31;4.20;;;3.50;;
34711;SDS011;20941;42.408;25.634;2023-06-10T12:42:57;5.63;;;4.03;;
34711;SDS011;20941;42.408;25.634;2023-06-10T12:45:32;3.88;;;3.03;;
34711;SDS011;20941;42.408;25.634;2023-06-10T12:50:42;7.33;;;3.67;;
34711;SDS011;20941;42.408;25.634;2023-06-10T12:53:07;9.57;;;3.60;;
34711;SDS011;20941;42.408;25.634;2023-06-10T12:55:33;5.55;;;3.05;;
34711;SDS011;20941;42.408;25.634;2023-06-10T12:57:59;3.30;;;3.00;;
34711;SDS011;20941;42.408;25.634;2023-06-10T13:00:25;4.22;;;3.30;;
34711;SDS011;20941;42.408;25.634;2023-06-10T13:02:51;6.50;;;3.28;;
34711;SDS011;20941;42.408;25.634;2023-06-10T13:05:17;3.90;;;3.22;;
34711;SDS011;20941;42.408;25.634;2023-06-10T13:07:43;4.50;;;2.83;;
34711;SDS011;20941;42.408;25.634;2023-06-10T13:10:08;4.88;;;3.30;;
34711;SDS011;20941;42.408;25.634;2023-06-10T13:12:34;3.78;;;3.10;;
34711;SDS011;20941;42.408;25.634;2023-06-10T13:14:59;3.25;;;2.88;;
34711;SDS011;20941;42.408;25.634;2023-06-10T13:17:25;3.47;;;3.00;;
34711;SDS011;20941;42.408;25.634;2023-06-10T13:19:50;4.63;;;3.88;;
34711;SDS011;20941;42.408;25.634;2023-06-10T13:22:16;8.27;;;6.53;;
34711;SDS011;20941;42.408;25.634;2023-06-10T13:24:41;12.80;;;6.63;;
34711;SDS011;20941;42.408;25.634;2023-06-10T13:27:08;4.90;;;3.65;;
34711;SDS011;20941;42.408;25.634;2023-06-10T13:29:34;4.20;;;3.13;;
34711;SDS011;20941;42.408;25.634;2023-06-10T13:31:59;5.50;;;3.10;;
34711;SDS011;20941;42.408;25.634;2023-06-10T13:34:24;7.72;;;3.55;;
34711;SDS011;20941;42.408;25.634;2023-06-10T13:36:50;3.70;;;3.30;;
34711;SDS011;20941;42.408;25.634;2023-06-10T13:39:15;3.80;;;3.40;;
34711;SDS011;20941;42.408;25.634;2023-06-10T13:41:41;4.57;;;3.20;;
34711;SDS011;20941;42.408;25.634;2023-06-10T13:44:06;4.88;;;3.38;;
34711;SDS011;20941;42.408;25.634;2023-06-10T13:46:32;7.05;;;3.38;;
34711;SDS011;20941;42.408;25.634;2023-06-10T13:48:57;5.82;;;3.42;;
34711;SDS011;20941;42.408;25.634;2023-06-10T13:51:22;4.65;;;3.13;;
34711;SDS011;20941;42.408;25.634;2023-06-10T13:53:48;3.70;;;2.97;;
34711;SDS011;20941;42.408;25.634;2023-06-10T13:56:13;4.00;;;3.08;;
34711;SDS011;20941;42.408;25.634;2023-06-10T13:58:39;6.55;;;3.05;;
34711;SDS011;20941;42.408;25.634;2023-06-10T14:01:06;6.32;;;3.30;;
34711;SDS011;20941;42.408;25.634;2023-06-10T14:03:31;8.02;;;3.40;;
34711;SDS011;20941;42.408;25.634;2023-06-10T14:05:57;5.68;;;3.22;;
34711;SDS011;20941;42.408;25.634;2023-06-10T14:08:22;11.63;;;3.53;;
34711;SDS011;20941;42.408;25.634;2023-06-10T14:10:47;4.75;;;2.83;;
34711;SDS011;20941;42.408;25.634;2023-06-10T14:13:13;5.18;;;2.88;;
34711;SDS011;20941;42.408;25.634;2023-06-10T14:15:38;4.28;;;3.15;;
34711;SDS011;20941;42.408;25.634;2023-06-10T14:18:04;3.60;;;2.80;;
34711;SDS011;20941;42.408;25.634;2023-06-10T14:20:29;6.53;;;3.10;;
34711;SDS011;20941;42.408;25.634;2023-06-10T14:22:56;3.58;;;2.75;;
34711;SDS011;20941;42.408;25.634;2023-06-10T14:25:21;3.25;;;3.00;;
34711;SDS011;20941;42.408;25.634;2023-06-10T14:27:47;5.13;;;3.30;;
34711;SDS011;20941;42.408;25.634;2023-06-10T14:30:12;4.30;;;3.10;;
34711;SDS011;20941;42.408;25.634;2023-06-10T14:32:38;4.10;;;3.70;;
34711;SDS011;20941;42.408;25.634;2023-06-10T14:35:04;4.28;;;3.30;;
34711;SDS011;20941;42.408;25.634;2023-06-10T14:37:30;10.23;;;3.45;;
34711;SDS011;20941;42.408;25.634;2023-06-10T14:39:55;4.53;;;3.20;;
34711;SDS011;20941;42.408;25.634;2023-06-10T14:42:20;7.70;;;3.10;;
34711;SDS011;20941;42.408;25.634;2023-06-10T14:44:47;4.55;;;3.25;;